Time;durP1;ratioP1;P1;durP2;ratioP2;P2;SDS_P1;SDS_P2;PMS_P1;PMS_P2;Temp;Humidity;BMP_temperature;BMP_pressure;BME280_temperature;BME280_humidity;BME280_pressure;Samples;Min_cycle;Max_cycle;Signal;HPM_P1;HPM_P2
2023/03/01 00:01:26;;;;;;;;;33.00;28.00;;;;;3.27;45.55;102247.81;5056801;28;46244;-73
2023/03/01 00:03:53;;;;;;;;;19.33;18.00;;;;;3.36;45.27;102250.06;5054530;28;46152;-74
2023/03/01 00:06:19;;;;;;;;;19.33;18.67;;;;;3.40;44.80;102265.72;5051284;28;45252;-74
2023/03/01 00:08:45;;;;;;;;;18.67;17.33;;;;;3.39;45.53;102264.00;5057783;28;45408;-75
2023/03/01 00:11:19;;;;;;;;;25.67;18.00;;;;;3.22;45.73;102244.53;5057025;28;48623;-72
2023/03/01 00:13:46;;;;;;;;;18.00;16.67;;;;;2.72;45.66;102173.78;5055742;28;45383;-72
2023/03/01 00:16:19;;;;;;;;;30.67;24.33;;;;;2.56;45.79;102164.75;5058153;28;45571;-74
2023/03/01 00:18:45;;;;;;;;;22.00;22.00;;;;;3.04;46.02;102237.38;5053116;28;45463;-76
2023/03/01 00:21:12;;;;;;;;;14.00;14.00;;;;;3.20;46.07;102263.88;5050784;28;46742;-75
2023/03/01 00:23:38;;;;;;;;;22.33;20.33;;;;;3.22;46.30;102262.94;5051667;28;45537;-72
2023/03/01 00:26:07;;;;;;;;;28.33;23.33;;;;;2.92;46.12;102232.56;5055019;28;45658;-74
2023/03/01 00:28:33;;;;;;;;;20.33;20.33;;;;;3.10;46.09;102262.53;5055902;28;45592;-75
2023/03/01 00:31:12;;;;;;;;;20.67;20.33;;;;;2.66;46.23;102197.66;5057286;28;45679;-75
2023/03/01 00:33:38;;;;;;;;;25.00;22.67;;;;;2.98;46.18;102258.59;5056764;28;45356;-73
2023/03/01 00:36:04;;;;;;;;;26.00;24.67;;;;;2.81;46.92;102237.38;5057174;28;45540;-73
2023/03/01 00:38:30;;;;;;;;;30.33;25.00;;;;;2.77;47.13;102247.13;5067986;28;45534;-74
2023/03/01 00:41:02;;;;;;;;;19.67;19.67;;;;;2.03;47.13;102115.16;5056048;28;47460;-72
2023/03/01 00:43:27;;;;;;;;;26.67;24.00;;;;;2.70;46.87;102230.75;5050742;28;45450;-72
2023/03/01 00:45:52;;;;;;;;;27.67;23.00;;;;;2.81;47.00;102263.66;5056716;28;45561;-73
2023/03/01 00:48:18;;;;;;;;;19.33;18.00;;;;;2.81;46.48;102240.88;5054884;28;45367;-74
2023/03/01 00:50:43;;;;;;;;;20.00;20.00;;;;;2.78;47.25;102234.84;5057365;28;46480;-74
2023/03/01 00:53:08;;;;;;;;;27.00;27.00;;;;;0.96;47.38;101975.69;5056145;28;52858;-74
2023/03/01 00:55:36;;;;;;;;;21.67;18.00;;;;;2.72;47.27;102252.56;5056449;28;45827;-77
2023/03/01 00:58:01;;;;;;;;;24.33;21.67;;;;;2.22;47.13;102177.44;5052776;28;47054;-72
2023/03/01 01:00:27;;;;;;;;;25.00;22.00;;;;;2.83;47.38;102262.69;5055491;28;46430;-73
2023/03/01 01:02:52;;;;;;;;;17.33;14.67;;;;;2.14;47.45;102164.56;5056890;28;45338;-73
2023/03/01 01:05:20;;;;;;;;;23.33;18.00;;;;;2.81;47.56;102276.78;5056587;28;45246;-72
2023/03/01 01:07:46;;;;;;;;;27.67;24.33;;;;;2.39;47.49;102206.53;5056850;28;45422;-72
2023/03/01 01:10:16;;;;;;;;;26.33;23.67;;;;;2.46;47.36;102218.53;5055994;28;46733;-74
2023/03/01 01:12:42;;;;;;;;;27.33;23.00;;;;;2.68;47.77;102266.72;5055637;28;45466;-73
2023/03/01 01:15:08;;;;;;;;;25.00;24.00;;;;;2.41;47.70;102215.22;5056541;28;45391;-73
2023/03/01 01:17:33;;;;;;;;;31.00;29.33;;;;;2.26;48.06;102195.63;5055570;28;45360;-75
2023/03/01 01:19:59;;;;;;;;;25.00;24.00;;;;;1.02;48.22;101989.44;5055182;28;48712;-71
2023/03/01 01:22:24;;;;;;;;;20.67;19.33;;;;;2.53;47.69;102214.75;5056645;28;45418;-73
2023/03/01 01:24:49;;;;;;;;;26.67;24.67;;;;;2.20;48.34;102179.25;5047553;28;45735;-74
2023/03/01 01:27:15;;;;;;;;;25.33;21.67;;;;;2.58;48.14;102256.59;5055040;28;45431;-73
2023/03/01 01:29:41;;;;;;;;;35.33;27.00;;;;;2.48;48.51;102231.59;5049265;28;46455;-73
2023/03/01 01:32:07;;;;;;;;;26.00;22.67;;;;;2.62;48.59;102259.06;5056625;28;45281;-73
2023/03/01 01:34:32;;;;;;;;;27.33;26.33;;;;;2.69;47.85;102265.81;5045781;28;45513;-78
2023/03/01 01:37:02;;;;;;;;;27.67;21.33;;;;;2.43;48.31;102184.53;5055368;28;49047;-74
2023/03/01 01:39:28;;;;;;;;;28.67;27.00;;;;;2.48;48.14;102208.84;5057096;28;46919;-73
2023/03/01 01:41:54;;;;;;;;;12.33;11.33;;;;;2.75;48.21;102241.94;5059187;28;45300;-74
2023/03/01 01:44:25;;;;;;;;;21.33;21.33;;;;;2.79;48.03;102231.31;5059651;28;45548;-73
2023/03/01 01:47:02;;;;;;;;;5.33;2.33;;;;;2.81;48.25;102226.88;5059414;28;45610;-72
2023/03/01 01:49:28;;;;;;;;;35.00;22.67;;;;;2.84;47.30;102246.00;5055513;28;47610;-77
2023/03/01 01:52:22;;;;;;;;;17.00;13.00;;;;;2.73;47.70;102228.00;5059419;28;45472;-72
2023/03/01 01:54:57;;;;;;;;;30.33;30.33;;;;;2.66;48.17;102225.69;5052365;28;45528;-74
2023/03/01 01:57:33;;;;;;;;;24.00;21.00;;;;;2.18;47.95;102149.56;5049425;28;45260;-77
2023/03/01 02:00:03;;;;;;;;;33.33;25.00;;;;;2.53;48.45;102192.91;5055660;28;46813;-72
2023/03/01 02:02:29;;;;;;;;;22.00;18.33;;;;;1.84;47.73;102072.13;5058202;28;45450;-73
2023/03/01 02:05:10;;;;;;;;;26.33;22.00;;;;;2.77;47.75;102218.22;5059740;28;45655;-72
2023/03/01 02:07:38;;;;;;;;;31.67;29.33;;;;;1.65;48.21;102031.75;5045559;28;45298;-74
2023/03/01 02:10:04;;;;;;;;;28.67;23.33;;;;;2.70;48.42;102217.63;5058149;28;47223;-75
2023/03/01 02:12:30;;;;;;;;;20.67;17.00;;;;;1.53;47.98;102040.91;5059806;28;45176;-73
2023/03/01 02:14:56;;;;;;;;;18.33;18.33;;;;;2.60;48.24;102218.00;5059562;28;45249;-72
2023/03/01 02:17:22;;;;;;;;;23.00;20.00;;;;;2.55;48.56;102218.19;5053061;28;45585;-74
2023/03/01 02:20:18;;;;;;;;;26.67;24.67;;;;;2.63;48.61;102226.66;5058827;28;48032;-74
2023/03/01 02:22:45;;;;;;;;;28.67;20.33;;;;;2.60;48.93;102232.03;5060858;28;45465;-71
2023/03/01 02:25:33;;;;;;;;;26.33;25.67;;;;;1.71;48.60;102050.75;5058965;28;45644;-72
2023/03/01 02:28:15;;;;;;;;;22.67;22.67;;;;;0.26;48.86;101807.09;5058602;28;45458;-71
2023/03/01 02:31:41;;;;;;;;;23.67;19.33;;;;;2.55;48.85;102193.69;5074136;27;48481;-72
2023/03/01 02:33:32;;;;;;;;;26.67;25.67;;;;;2.65;48.84;102205.59;5056490;27;45276;-71
2023/03/01 02:36:00;;;;;;;;;21.00;18.00;;;;;2.62;48.83;102201.31;5050903;28;45213;-73
2023/03/01 02:38:26;;;;;;;;;26.00;22.67;;;;;2.51;49.32;102199.97;5059394;28;45295;-72
2023/03/01 02:40:52;;;;;;;;;26.00;21.33;;;;;2.11;49.24;102151.56;5050757;28;46947;-73
2023/03/01 02:43:20;;;;;;;;;28.00;23.33;;;;;2.40;49.55;102205.59;5058799;28;45211;-71
2023/03/01 02:45:50;;;;;;;;;26.33;24.33;;;;;1.97;50.07;102157.31;5057532;28;45313;-72
2023/03/01 02:48:17;;;;;;;;;31.00;25.33;;;;;1.87;49.77;102124.47;5058939;28;45482;-72
2023/03/01 02:50:58;;;;;;;;;30.00;27.00;;;;;2.33;49.79;102197.13;5057680;28;45740;-73
2023/03/01 02:53:34;;;;;;;;;25.00;22.33;;;;;1.95;50.31;102143.41;5048403;28;46385;-72
2023/03/01 02:56:00;;;;;;;;;29.33;26.33;;;;;2.09;50.30;102182.25;5056251;28;45220;-73
2023/03/01 02:58:26;;;;;;;;;19.67;19.00;;;;;1.31;49.96;102046.03;5058647;28;45442;-73
2023/03/01 03:00:51;;;;;;;;;22.67;21.33;;;;;2.06;50.59;102172.75;5058537;28;45610;-73
2023/03/01 03:03:20;;;;;;;;;23.00;21.00;;;;;2.22;49.93;102187.94;5058432;28;45444;-74
2023/03/01 03:05:45;;;;;;;;;27.67;22.33;;;;;2.22;50.68;102195.81;5058324;28;45453;-72
2023/03/01 03:08:11;;;;;;;;;23.33;21.33;;;;;2.20;50.86;102192.34;5058703;28;45280;-74
2023/03/01 03:10:40;;;;;;;;;28.00;17.33;;;;;2.28;50.60;102200.81;5058408;28;45560;-73
2023/03/01 03:13:12;;;;;;;;;24.00;21.00;;;;;2.28;50.48;102171.97;5057788;28;45324;-77
2023/03/01 03:15:38;;;;;;;;;25.67;23.67;;;;;2.25;50.88;102166.84;5046154;28;45282;-74
2023/03/01 03:18:07;;;;;;;;;24.00;20.33;;;;;2.03;50.62;102135.28;5054357;28;45371;-73
2023/03/01 03:20:32;;;;;;;;;17.33;17.00;;;;;2.22;50.57;102177.44;5056775;28;48597;-76
2023/03/01 03:22:58;;;;;;;;;30.33;25.33;;;;;1.96;50.54;102129.38;5058309;28;45442;-72
2023/03/01 03:25:25;;;;;;;;;25.75;23.50;;;;;2.07;50.99;102163.09;5058163;28;45437;-73
2023/03/01 03:27:58;;;;;;;;;23.67;17.67;;;;;1.99;51.03;102173.84;5056101;28;45506;-75
2023/03/01 03:30:27;;;;;;;;;22.33;20.33;;;;;2.02;51.25;102171.13;5062658;28;47609;-72
2023/03/01 03:32:52;;;;;;;;;40.00;26.67;;;;;1.74;51.08;102118.78;5045164;28;46428;-72
2023/03/01 03:35:24;;;;;;;;;23.33;19.67;;;;;2.04;51.18;102169.31;5047200;28;45678;-72
2023/03/01 03:38:02;;;;;;;;;28.75;25.25;;;;;1.44;51.51;102077.94;5058171;28;45541;-74
2023/03/01 03:40:30;;;;;;;;;32.00;28.75;;;;;1.91;51.90;102175.88;5056365;28;47405;-74
2023/03/01 03:42:56;;;;;;;;;28.33;24.67;;;;;1.19;51.96;102070.03;5055122;28;45526;-73
2023/03/01 03:45:21;;;;;;;;;27.67;24.67;;;;;1.88;52.43;102196.97;5056814;28;45423;-72
2023/03/01 03:47:47;;;;;;;;;31.25;26.00;;;;;1.19;52.29;102052.53;5057950;28;45348;-72
2023/03/01 03:50:15;;;;;;;;;24.33;21.33;;;;;1.73;52.03;102158.16;5064079;28;48397;-73
2023/03/01 03:52:41;;;;;;;;;23.50;20.00;;;;;1.05;51.79;102053.94;5056760;28;46022;-73
2023/03/01 03:55:10;;;;;;;;;23.75;18.50;;;;;1.64;52.65;102159.34;5056835;28;45516;-71
2023/03/01 03:57:40;;;;;;;;;30.75;27.00;;;;;1.70;52.45;102155.66;5058279;28;45272;-75
2023/03/01 04:00:12;;;;;;;;;29.25;27.50;;;;;1.33;53.22;102112.34;5057441;28;47688;-72
2023/03/01 04:02:45;;;;;;;;;30.75;24.75;;;;;1.08;52.58;102048.59;5052006;28;45896;-73
2023/03/01 04:05:14;;;;;;;;;35.50;34.00;;;;;1.22;52.92;102067.34;5057395;28;45319;-72
2023/03/01 04:07:40;;;;;;;;;28.75;24.75;;;;;1.81;52.78;102161.41;5057185;28;45425;-74
2023/03/01 04:10:09;;;;;;;;;31.50;26.75;;;;;1.80;52.35;102149.16;5056402;28;46577;-73
2023/03/01 04:12:34;;;;;;;;;32.25;29.75;;;;;1.85;52.19;102163.00;5057466;28;45361;-71
2023/03/01 04:15:01;;;;;;;;;27.75;24.75;;;;;1.85;52.56;102163.00;5057368;28;45564;-72
2023/03/01 04:17:27;;;;;;;;;26.00;25.00;;;;;1.83;52.77;102170.94;5057734;28;45371;-70
2023/03/01 04:19:52;;;;;;;;;35.25;27.50;;;;;1.88;52.25;102157.66;5061248;28;48106;-74
2023/03/01 04:22:18;;;;;;;;;22.25;15.00;;;;;1.82;52.04;102157.88;5052692;28;45354;-72
2023/03/01 04:24:44;;;;;;;;;30.75;27.75;;;;;1.43;52.71;102116.38;5056336;28;45326;-72
2023/03/01 04:27:11;;;;;;;;;31.00;25.75;;;;;1.53;52.97;102135.25;5056484;28;45622;-72
2023/03/01 04:29:36;;;;;;;;;34.50;29.75;;;;;1.44;52.82;102140.81;5055109;28;46571;-72
2023/03/01 04:32:02;;;;;;;;;22.75;19.75;;;;;1.50;52.65;102141.47;5057219;28;45240;-75
2023/03/01 04:34:28;;;;;;;;;27.75;21.75;;;;;1.32;52.80;102104.53;5056363;28;45312;-74
2023/03/01 04:36:53;;;;;;;;;25.25;25.25;;;;;0.82;53.34;102026.75;5056184;28;45351;-71
2023/03/01 04:39:18;;;;;;;;;41.00;29.75;;;;;1.44;53.16;102130.34;5052217;28;60008;-71
2023/03/01 04:41:44;;;;;;;;;29.75;28.75;;;;;1.58;53.06;102156.06;5055837;28;46235;-71
2023/03/01 04:44:09;;;;;;;;;32.50;30.25;;;;;0.88;53.56;102078.91;5055429;28;45503;-74
2023/03/01 04:46:35;;;;;;;;;32.75;28.75;;;;;1.41;53.90;102151.41;5054074;28;45232;-74
2023/03/01 04:49:02;;;;;;;;;29.50;28.00;;;;;1.49;53.91;102150.25;5056687;28;46768;-74
2023/03/01 04:51:28;;;;;;;;;33.50;28.00;;;;;1.62;53.12;102155.06;5054821;28;45664;-73
2023/03/01 04:53:54;;;;;;;;;29.67;27.67;;;;;1.75;53.20;102156.34;5054607;28;45510;-74
2023/03/01 04:56:19;;;;;;;;;28.33;21.67;;;;;1.31;52.85;102101.06;5049585;28;45520;-73
2023/03/01 04:58:45;;;;;;;;;34.33;29.67;;;;;1.25;53.32;102077.69;5055049;28;45386;-71
2023/03/01 05:01:16;;;;;;;;;30.50;27.50;;;;;-1.00;53.55;101709.28;5055850;28;46069;-72
2023/03/01 05:03:47;;;;;;;;;31.75;28.75;;;;;1.61;53.29;102133.25;5051157;28;45455;-72
2023/03/01 05:06:13;;;;;;;;;32.25;25.75;;;;;1.76;53.22;102131.84;5055366;28;45597;-79
2023/03/01 05:08:39;;;;;;;;;30.50;28.00;;;;;1.80;53.10;102133.44;5050795;28;45407;-75
2023/03/01 05:11:08;;;;;;;;;29.75;25.75;;;;;1.67;53.02;102109.44;5053281;28;46753;-72
2023/03/01 05:13:34;;;;;;;;;30.75;26.25;;;;;1.70;53.24;102103.22;5055614;28;45441;-74
2023/03/01 05:16:01;;;;;;;;;29.75;26.75;;;;;1.75;53.32;102130.13;5055508;28;45329;-74
2023/03/01 05:18:28;;;;;;;;;40.25;34.50;;;;;1.39;53.23;102070.22;5056469;28;45578;-74
2023/03/01 05:20:58;;;;;;;;;24.00;17.75;;;;;1.70;53.37;102148.66;5055293;28;45488;-74
2023/03/01 05:23:24;;;;;;;;;34.25;29.25;;;;;1.60;53.48;102134.13;5054927;28;45391;-76
2023/03/01 05:25:52;;;;;;;;;35.75;31.25;;;;;1.48;53.58;102116.22;5043468;28;45966;-74
2023/03/01 05:28:19;;;;;;;;;33.50;30.25;;;;;1.17;53.34;102074.47;5054735;28;48510;-75
2023/03/01 05:30:45;;;;;;;;;36.25;33.50;;;;;1.62;53.44;102136.72;5053367;28;45506;-73
2023/03/01 05:33:13;;;;;;;;;32.50;28.00;;;;;1.37;53.71;102111.34;5052885;28;45582;-74
2023/03/01 05:35:40;;;;;;;;;33.50;28.00;;;;;0.67;53.86;101981.91;5045295;28;45298;-74
2023/03/01 05:38:06;;;;;;;;;30.25;24.75;;;;;1.10;54.06;102054.63;5047995;28;47829;-73
2023/03/01 05:40:33;;;;;;;;;35.25;30.75;;;;;1.41;54.08;102131.31;5057721;28;45284;-73
2023/03/01 05:42:59;;;;;;;;;25.00;24.00;;;;;0.73;54.04;102027.03;5051320;28;45259;-75
2023/03/01 05:45:26;;;;;;;;;34.75;28.25;;;;;0.50;54.89;101992.91;5054996;28;45536;-75
2023/03/01 05:47:54;;;;;;;;;28.50;24.75;;;;;1.16;55.07;102110.28;5056112;28;46191;-73
2023/03/01 05:50:23;;;;;;;;;30.00;27.75;;;;;1.30;55.19;102122.94;5054297;28;45502;-73
2023/03/01 05:53:10;;;;;;;;;30.25;28.50;;;;;1.47;54.67;102136.34;5056047;28;45209;-72
2023/03/01 05:55:37;;;;;;;;;39.75;31.25;;;;;1.51;54.50;102124.84;5052441;28;45388;-73
2023/03/01 05:58:06;;;;;;;;;40.75;31.00;;;;;1.32;54.47;102105.41;5050327;28;45807;-73
2023/03/01 06:00:32;;;;;;;;;38.25;31.00;;;;;1.29;54.53;102102.88;5055859;28;45505;-74
2023/03/01 06:02:58;;;;;;;;;26.50;24.00;;;;;0.98;55.09;102066.38;5055738;28;45500;-74
2023/03/01 06:05:24;;;;;;;;;32.50;29.25;;;;;1.13;55.28;102109.53;5054304;28;45450;-74
2023/03/01 06:07:50;;;;;;;;;35.67;32.00;;;;;1.10;55.21;102107.00;5054733;28;45518;-73
2023/03/01 06:10:16;;;;;;;;;36.50;32.75;;;;;0.73;55.37;102042.75;5056280;28;45447;-73
2023/03/01 06:12:42;;;;;;;;;30.75;29.00;;;;;1.25;55.20;102122.25;5055274;28;45476;-72
2023/03/01 06:15:11;;;;;;;;;39.75;33.75;;;;;0.89;55.36;102071.91;5055649;28;45575;-73
2023/03/01 06:17:40;;;;;;;;;36.50;34.50;;;;;0.99;56.23;102096.88;5055749;28;46367;-74
2023/03/01 06:20:11;;;;;;;;;36.75;35.00;;;;;1.09;56.18;102105.31;5055360;28;45231;-74
2023/03/01 06:22:36;;;;;;;;;32.50;28.75;;;;;1.02;56.55;102106.44;5054205;28;45332;-72
2023/03/01 06:25:02;;;;;;;;;41.50;39.00;;;;;0.96;56.78;102106.59;5053825;28;45213;-74
2023/03/01 06:27:27;;;;;;;;;41.75;35.00;;;;;1.06;56.59;102095.78;5053431;28;48411;-74
2023/03/01 06:29:53;;;;;;;;;34.75;29.50;;;;;0.90;56.43;102052.69;5054826;28;46127;-75
2023/03/01 06:32:18;;;;;;;;;38.50;33.00;;;;;1.22;55.86;102077.81;5059461;28;45353;-74
2023/03/01 06:34:44;;;;;;;;;39.50;36.00;;;;;0.77;55.91;102002.47;5055146;28;45493;-72
2023/03/01 06:37:09;;;;;;;;;45.25;40.25;;;;;1.27;55.76;102073.25;5057974;28;46337;-74
2023/03/01 06:39:35;;;;;;;;;43.25;38.50;;;;;1.41;55.35;102084.13;5057990;28;45605;-73
2023/03/01 06:42:00;;;;;;;;;40.50;38.25;;;;;0.57;55.40;101940.31;5058156;28;45189;-76
2023/03/01 06:44:26;;;;;;;;;44.50;36.75;;;;;1.52;55.15;102084.59;5059033;28;45422;-78
2023/03/01 06:46:51;;;;;;;;;43.75;37.75;;;;;1.61;54.87;102096.56;5057220;28;47626;-76
2023/03/01 06:49:17;;;;;;;;;34.75;29.00;;;;;1.56;55.37;102081.88;5058522;28;45372;-74
2023/03/01 06:51:43;;;;;;;;;51.25;42.00;;;;;1.64;54.97;102080.72;5056811;28;45375;-73
2023/03/01 06:54:08;;;;;;;;;41.75;37.00;;;;;1.28;54.59;102022.59;5056305;28;45420;-73
2023/03/01 06:56:34;;;;;;;;;51.00;39.50;;;;;1.36;55.17;102024.91;5058546;28;45261;-75
2023/03/01 06:58:59;;;;;;;;;41.75;37.50;;;;;1.73;54.75;102090.00;5058489;28;45314;-76
2023/03/01 07:01:25;;;;;;;;;44.75;38.25;;;;;1.38;54.38;102042.28;5057529;28;45529;-73
2023/03/01 07:03:50;;;;;;;;;43.50;39.75;;;;;0.60;55.34;101900.09;5057593;28;45363;-73
2023/03/01 07:06:15;;;;;;;;;43.50;39.25;;;;;1.66;55.01;102067.56;5073646;28;47624;-74
2023/03/01 07:08:41;;;;;;;;;46.25;39.00;;;;;0.98;54.77;101931.97;5057283;28;45487;-73
2023/03/01 07:11:06;;;;;;;;;36.00;35.50;;;;;1.60;54.84;102028.44;5057377;28;45819;-75
2023/03/01 07:13:32;;;;;;;;;39.75;36.75;;;;;1.78;54.37;102067.09;5050590;28;45599;-72
2023/03/01 07:15:57;;;;;;;;;52.50;41.25;;;;;1.83;55.03;102073.06;5053059;28;45605;-73
2023/03/01 07:18:23;;;;;;;;;45.25;39.50;;;;;1.92;54.59;102074.47;5053949;28;45386;-71
2023/03/01 07:20:49;;;;;;;;;43.50;39.00;;;;;1.20;54.43;101948.63;5058539;28;45538;-73
2023/03/01 07:23:15;;;;;;;;;40.75;31.25;;;;;2.08;54.53;102086.97;5058493;28;45494;-73
2023/03/01 07:25:40;;;;;;;;;45.00;39.75;;;;;1.29;54.73;101965.78;5058274;28;46244;-72
2023/03/01 07:28:05;;;;;;;;;45.25;37.00;;;;;1.83;54.39;102081.78;5056309;28;45607;-71
2023/03/01 07:30:31;;;;;;;;;42.50;38.75;;;;;1.51;54.94;102054.06;5056034;28;46758;-76
2023/03/01 07:32:58;;;;;;;;;42.00;37.75;;;;;1.77;55.25;102086.34;5039395;28;45528;-73
2023/03/01 07:35:25;;;;;;;;;43.25;39.25;;;;;2.00;55.50;102078.53;5063099;28;45622;-74
2023/03/01 07:37:51;;;;;;;;;44.50;39.50;;;;;1.98;54.03;102025.25;5038641;28;45277;-76
2023/03/01 07:40:17;;;;;;;;;51.75;41.75;;;;;1.98;53.36;102012.13;5063163;28;45575;-75
2023/03/01 07:42:42;;;;;;;;;49.25;41.00;;;;;2.82;53.06;102073.63;5053788;28;45406;-75
2023/03/01 07:45:08;;;;;;;;;59.75;48.00;;;;;2.78;51.84;102027.38;5056786;28;47932;-76
2023/03/01 07:47:33;;;;;;;;;36.75;34.75;;;;;3.19;51.43;102073.81;5057710;28;45499;-76
2023/03/01 07:49:59;;;;;;;;;52.50;40.25;;;;;3.37;50.78;102077.44;5056771;28;45532;-72
2023/03/01 07:52:24;;;;;;;;;41.50;38.75;;;;;3.50;50.69;102081.25;5060069;28;45604;-72
2023/03/01 07:54:50;;;;;;;;;45.50;39.00;;;;;3.65;49.81;102071.88;5054915;28;45772;-74
2023/03/01 07:57:15;;;;;;;;;35.50;34.25;;;;;3.25;49.14;101946.56;5049434;28;45224;-77
2023/03/01 07:59:40;;;;;;;;;50.50;39.00;;;;;4.23;48.18;102037.66;5055215;28;45587;-74
2023/03/01 08:02:07;;;;;;;;;58.25;43.25;;;;;3.61;47.24;101907.25;5057390;28;45414;-75
2023/03/01 08:04:33;;;;;;;;;45.00;39.00;;;;;4.36;47.34;101996.66;5056259;28;46427;-75
2023/03/01 08:06:58;;;;;;;;;52.25;40.50;;;;;4.97;45.98;102053.38;5057519;28;45512;-76
2023/03/01 08:09:24;;;;;;;;;46.00;37.75;;;;;5.29;45.88;102071.09;5055518;28;45542;-75
2023/03/01 08:11:49;;;;;;;;;45.50;40.25;;;;;5.39;44.61;102067.03;5057291;28;45457;-75
2023/03/01 08:14:15;;;;;;;;;49.25;40.50;;;;;5.37;44.52;102070.69;5055783;28;46118;-73
2023/03/01 08:16:40;;;;;;;;;40.75;34.50;;;;;5.20;45.58;102042.53;5053844;28;46588;-76
2023/03/01 08:19:08;;;;;;;;;53.25;45.00;;;;;5.30;45.04;102054.34;5059723;28;45768;-76
2023/03/01 08:21:36;;;;;;;;;50.75;41.75;;;;;5.49;45.53;102064.81;5051810;28;45432;-75
2023/03/01 08:24:03;;;;;;;;;55.50;43.75;;;;;5.53;44.03;102071.63;5056366;28;46615;-75
2023/03/01 08:26:29;;;;;;;;;49.25;39.00;;;;;5.84;45.19;102064.75;5056990;28;45463;-73
2023/03/01 08:28:54;;;;;;;;;42.50;37.50;;;;;5.96;42.78;102025.38;5053594;28;45759;-73
2023/03/01 08:31:21;;;;;;;;;51.25;41.25;;;;;6.22;44.14;102054.81;5053869;28;45479;-73
2023/03/01 08:33:54;;;;;;;;;57.50;45.50;;;;;6.22;43.51;102013.41;5056221;28;45942;-72
2023/03/01 08:36:24;;;;;;;;;51.00;43.00;;;;;6.59;42.45;102048.31;5047023;28;45711;-74
2023/03/01 08:38:50;;;;;;;;;52.75;41.50;;;;;6.56;41.55;102035.28;5057775;28;45543;-72
2023/03/01 08:41:16;;;;;;;;;46.50;37.25;;;;;7.05;41.43;102069.50;5056822;28;45240;-76
2023/03/01 08:43:41;;;;;;;;;51.50;42.00;;;;;6.38;41.80;101979.06;5051449;28;46409;-74
2023/03/01 08:46:07;;;;;;;;;45.50;39.75;;;;;5.47;42.08;101863.59;5054337;28;46163;-74
2023/03/01 08:48:33;;;;;;;;;51.75;40.75;;;;;5.99;42.59;101979.47;5056822;28;45545;-79
2023/03/01 08:51:08;;;;;;;;;51.25;40.00;;;;;5.47;42.12;101925.09;5054012;28;45533;-74
2023/03/01 08:53:33;;;;;;;;;52.25;42.25;;;;;5.98;42.65;101998.91;5048107;28;47616;-76
2023/03/01 08:56:02;;;;;;;;;37.00;35.50;;;;;6.13;43.19;102039.47;5066199;28;46304;-82
2023/03/01 08:58:29;;;;;;;;;51.75;43.75;;;;;6.28;42.46;102038.63;5064142;28;45415;-76
2023/03/01 09:00:56;;;;;;;;;51.50;41.50;;;;;6.34;42.69;102033.84;5060863;28;45348;-77
2023/03/01 09:03:21;;;;;;;;;55.50;44.75;;;;;6.00;42.04;101978.53;5056328;28;46554;-76
2023/03/01 09:05:49;;;;;;;;;63.25;47.50;;;;;6.43;42.74;102024.56;5053761;28;45658;-74
2023/03/01 09:08:14;;;;;;;;;34.25;29.75;;;;;5.21;42.17;101795.59;5049255;28;45384;-77
2023/03/01 09:10:40;;;;;;;;;50.00;42.00;;;;;6.65;41.50;102021.56;5049310;28;45475;-75
2023/03/01 09:13:05;;;;;;;;;51.25;41.50;;;;;5.84;41.75;101916.97;5049029;28;45495;-75
2023/03/01 09:15:31;;;;;;;;;48.75;41.25;;;;;6.41;42.00;102018.53;5050895;28;45424;-75
2023/03/01 09:17:56;;;;;;;;;48.50;41.00;;;;;6.50;42.27;101988.09;5050686;28;45575;-74
2023/03/01 09:20:21;;;;;;;;;46.50;37.25;;;;;6.60;41.58;101942.53;5045810;28;45494;-74
2023/03/01 09:22:47;;;;;;;;;50.75;40.00;;;;;7.03;40.42;101979.69;5055558;28;45669;-75
2023/03/01 09:25:12;;;;;;;;;49.00;41.50;;;;;6.66;40.33;101954.56;5056411;28;45423;-74
2023/03/01 09:27:38;;;;;;;;;49.75;41.00;;;;;7.22;41.07;102011.19;5054834;28;45426;-75
2023/03/01 09:30:04;;;;;;;;;53.75;40.50;;;;;7.47;39.62;102003.47;5054277;28;45526;-75
2023/03/01 09:32:31;;;;;;;;;47.75;41.75;;;;;7.45;39.72;101997.41;5040185;28;48872;-76
2023/03/01 09:35:05;;;;;;;;;37.00;33.75;;;;;7.31;39.32;101947.13;5053824;28;45757;-77
2023/03/01 09:37:35;;;;;;;;;49.50;40.50;;;;;7.97;38.72;101986.22;5053176;28;45333;-78
2023/03/01 09:40:00;;;;;;;;;50.25;40.50;;;;;7.10;37.64;101731.59;5053995;28;45423;-75
2023/03/01 09:42:30;;;;;;;;;51.75;42.25;;;;;8.52;36.72;101872.25;5056060;28;45661;-73
2023/03/01 09:45:03;;;;;;;;;54.00;44.00;;;;;9.26;36.51;101965.38;5056706;28;45443;-77
2023/03/01 09:47:32;;;;;;;;;47.00;39.75;;;;;9.86;35.52;101970.00;5058204;28;45629;-76
2023/03/01 09:50:19;;;;;;;;;47.67;38.00;;;;;9.87;34.90;101945.16;5055000;28;45547;-78
2023/03/01 09:53:07;;;;;;;;;28.67;28.67;;;;;8.02;35.80;101739.69;5050365;28;48053;-74
2023/03/01 09:55:52;;;;;;;;;48.33;39.67;;;;;9.01;36.04;101934.34;5051938;28;45434;-76
2023/03/01 09:58:30;;;;;;;;;48.00;39.67;;;;;8.59;36.84;101975.22;5067695;28;45703;-74
2023/03/01 10:01:02;;;;;;;;;45.75;38.50;;;;;8.15;37.52;101934.75;5068871;28;45554;-78
2023/03/01 10:03:34;;;;;;;;;36.75;31.25;;;;;8.14;38.12;101963.97;5052668;28;48081;-78
2023/03/01 10:06:12;;;;;;;;;50.00;42.00;;;;;6.79;39.57;101870.94;5056647;28;45510;-74
2023/03/01 10:08:41;;;;;;;;;49.25;41.25;;;;;6.96;40.80;101963.31;5085772;27;45350;-76
2023/03/01 10:11:28;;;;;;;;;43.00;36.25;;;;;6.95;40.88;101964.25;5059344;28;45284;-76
2023/03/01 10:14:01;;;;;;;;;40.25;36.50;;;;;6.07;41.02;101840.84;5054975;28;47563;-77
2023/03/01 10:16:44;;;;;;;;;39.50;36.00;;;;;6.01;42.98;101861.50;5066447;27;45279;-80
2023/03/01 10:19:23;;;;;;;;;52.00;42.00;;;;;5.67;41.51;101815.84;5057819;28;45439;-76
2023/03/01 10:21:51;;;;;;;;;48.25;38.75;;;;;6.36;42.26;101942.16;5057813;28;45480;-79
2023/03/01 10:24:21;;;;;;;;;40.25;35.75;;;;;5.44;42.22;101779.38;5057202;28;46938;-76
2023/03/01 10:27:00;;;;;;;;;50.25;39.50;;;;;6.03;42.47;101864.88;5087503;27;45369;-77
2023/03/01 10:29:45;;;;;;;;;51.00;40.75;;;;;5.97;41.74;101844.09;5057123;28;45374;-74
2023/03/01 10:32:11;;;;;;;;;44.25;36.75;;;;;6.16;42.17;101881.72;5054948;28;45660;-74
2023/03/01 10:34:36;;;;;;;;;51.00;41.50;;;;;6.40;42.30;101946.31;5057278;28;48165;-73
2023/03/01 10:37:18;;;;;;;;;43.75;37.00;;;;;6.04;42.87;101920.25;5059346;28;45418;-76
2023/03/01 10:40:05;;;;;;;;;43.00;38.25;;;;;6.22;42.65;101938.63;5060418;28;45482;-77
2023/03/01 10:42:39;;;;;;;;;51.00;39.75;;;;;5.54;43.12;101840.34;5057949;28;45634;-79
2023/03/01 10:45:35;;;;;;;;;50.25;39.00;;;;;6.13;43.21;101921.50;5057203;28;46076;-80
2023/03/01 10:48:15;;;;;;;;;53.75;41.50;;;;;5.52;42.65;101818.50;5055293;28;45432;-80
2023/03/01 10:50:50;;;;;;;;;40.25;35.00;;;;;6.00;42.53;101929.25;5062225;27;45511;-78
2023/03/01 10:53:30;;;;;;;;;42.25;36.00;;;;;6.07;43.00;101950.88;5051902;28;45488;-78
2023/03/01 10:56:10;;;;;;;;;43.25;37.25;;;;;5.76;42.52;101907.66;5058142;28;45685;-78
2023/03/01 10:58:38;;;;;;;;;45.50;40.50;;;;;4.69;42.76;101722.00;5058258;28;45177;-78
2023/03/01 11:01:15;;;;;;;;;39.50;34.00;;;;;5.75;43.37;101921.81;5056781;28;45453;-80
2023/03/01 11:03:41;;;;;;;;;42.25;35.00;;;;;4.85;43.05;101762.41;5054510;28;45549;-78
2023/03/01 11:06:12;;;;;;;;;47.50;37.00;;;;;5.75;43.45;101913.88;5056053;28;46075;-78
2023/03/01 11:08:46;;;;;;;;;41.75;38.00;;;;;4.39;43.50;101727.94;5058178;28;45364;-76
2023/03/01 11:11:17;;;;;;;;;43.50;35.50;;;;;5.62;43.62;101931.34;5056831;28;45255;-74
2023/03/01 11:14:04;;;;;;;;;44.75;34.75;;;;;5.61;43.70;101926.16;5058423;28;45659;-74
2023/03/01 11:16:38;;;;;;;;;42.00;37.00;;;;;5.44;44.22;101871.66;5052043;28;45679;-75
2023/03/01 11:19:09;;;;;;;;;45.00;37.50;;;;;5.78;43.57;101919.00;5056997;28;45464;-75
2023/03/01 11:21:39;;;;;;;;;51.00;41.50;;;;;5.76;44.02;101912.94;5051386;28;45348;-77
2023/03/01 11:24:10;;;;;;;;;36.25;34.25;;;;;5.67;44.25;101894.16;5056412;28;45438;-76